Hacker Valley, West Virginia
Current Conditions -  °F | °C
As of 4:15 AM on Sunday 21 Dec 2014 (Local Time) from KW22 Reporting Station
Broken Clouds Broken Clouds  
Wind Chill: 28°   Ceiling: 3300
Heat Index: 28°   Visibility: 10mi
Dew Point: 25°   Wind: 0mph
Humidity: 86%   Direction: NA
Pressure: 30.24"   Gusts: NA
Location:  38.65°N, 80.38°W
Report Text: KW22 210915Z AUTO 00000KT 10SM SCT023 BKN033 BKN047 M02/M04 A3024 RMK AO2
Loading
Personal Weather Stations






























Interactive Weather Map New forecast layout! Learn more

10-Day Weather Forecast

Advertisements
Track Severe Weather on mobile